首页
METAR-TAF:

METAR-TAF

机场 :

Hunt Field

Lander, 怀俄明州, 美国

纬度: 42-48-53N, 经度: 108-43-41W, 海拔: 1703米

当前天气观测

该预报发布于1小时和5分钟前的07:53 UTC
风速5节,风向北转西北
温度 16°C
湿度 36%
气压 1015 hPa
能見度: 16.1公里
天空无云

METAR: KLND 260753Z AUTO 33005KT 10SM CLR 16/01 A2996 RMK AO2 SLP080 T01610006

时间: 02:58 (08:58 UTC)

预报

该预报发布于3小时和32分钟前的05:26 UTC
预报有效从26日的 06点(UTC)到 27日的 06点(UTC)
风速7节,风向西转西南
能見度: 10公里
散云层高于9000英尺
多云层高于15000英尺
从 26日的 1300点(UTC)
风速5节,风向多变
能見度: 10公里
少量云层高于12000英尺
从 26日的 1900点(UTC)
风速13节,风向西南,有时为22节阵风
能見度: 10公里
少量云层高于12000英尺
从 27日的 0400点(UTC)
风速8节,风向西转西南
能見度: 10公里
天空无云

TAF: KLND 260526Z 2606/2706 25007KT P6SM SCT090 BKN150 FM261300 VRB05KT P6SM FEW120 FM261900 23013G22KT P6SM FEW120 FM270400 24008KT P6SM SKC

超过4000个机场的气象观测和天气预报(METAR&TAF报告)。

可查询的气象台以黄色和红色小点在地图上表示。

将鼠标移到小点上方,可查看气象台名称。

然后点击查看天气观测和预报。

如需切换地图:点击带黑十字的绿色按钮放大地图;点击带横线的绿色按钮缩小地图;或者点击绿色箭头查看邻近地区的地图。


METAR-TAF: